Time;durP1;ratioP1;P1;durP2;ratioP2;P2;SDS_P1;SDS_P2;PMS_P1;PMS_P2;Temp;Humidity;BMP_temperature;BMP_pressure;BME280_temperature;BME280_humidity;BME280_pressure;Samples;Min_cycle;Max_cycle;Signal;HPM_P1;HPM_P2
2022/10/02 00:01:14;;;;;;;24.17;2.33;;;14.10;99.90;;;;;;5028516;28;20199;-54
2022/10/02 00:03:43;;;;;;;20.52;2.80;;;14.10;99.90;;;;;;5048429;28;20690;-51
2022/10/02 00:06:21;;;;;;;26.80;2.67;;;14.10;99.90;;;;;;5052818;28;20709;-48
2022/10/02 00:08:51;;;;;;;29.75;2.83;;;14.10;99.90;;;;;;5052485;28;20170;-49
2022/10/02 00:11:26;;;;;;;29.48;2.72;;;14.10;99.90;;;;;;5049964;28;20270;-50
2022/10/02 00:13:59;;;;;;;27.92;3.47;;;14.10;99.90;;;;;;5052538;28;20569;-50
2022/10/02 00:16:55;;;;;;;22.05;2.95;;;14.10;99.90;;;;;;5051694;28;20183;-48
2022/10/02 00:19:21;;;;;;;31.20;3.83;;;14.10;99.90;;;;;;5020816;28;20188;-49
2022/10/02 00:21:55;;;;;;;26.33;3.20;;;14.10;99.90;;;;;;5040622;28;20629;-49
2022/10/02 00:24:26;;;;;;;28.35;3.63;;;14.20;99.90;;;;;;5034247;28;20730;-52
2022/10/02 00:27:28;;;;;;;22.98;3.60;;;14.20;99.90;;;;;;5056372;28;20187;-47
2022/10/02 00:29:58;;;;;;;26.65;4.28;;;14.20;99.90;;;;;;5056392;28;20179;-49
2022/10/02 00:32:39;;;;;;;28.23;4.35;;;14.30;99.90;;;;;;5023554;28;20214;-50
2022/10/02 00:35:27;;;;;;;38.80;4.75;;;14.30;99.90;;;;;;5048559;28;20230;-51
2022/10/02 00:38:16;;;;;;;24.50;3.53;;;14.40;99.90;;;;;;5055756;28;20627;-52
2022/10/02 00:41:11;;;;;;;28.27;3.53;;;14.50;99.90;;;;;;5056900;28;20265;-49
2022/10/02 00:43:46;;;;;;;21.75;3.28;;;14.60;99.90;;;;;;5047770;28;20176;-53
2022/10/02 00:46:26;;;;;;;24.83;3.83;;;14.70;99.90;;;;;;5055889;28;20182;-52
2022/10/02 00:49:07;;;;;;;21.73;3.95;;;14.80;99.90;;;;;;5054318;28;20669;-53
2022/10/02 00:51:51;;;;;;;26.58;4.50;;;14.80;99.90;;;;;;5049374;28;20186;-51
2022/10/02 00:54:50;;;;;;;29.08;3.72;;;14.90;99.90;;;;;;5055661;28;20343;-51
2022/10/02 00:57:19;;;;;;;28.00;4.05;;;14.90;99.90;;;;;;5056290;28;20263;-54
2022/10/02 00:59:57;;;;;;;18.65;3.67;;;14.90;99.90;;;;;;5049717;28;20754;-53
2022/10/02 01:02:29;;;;;;;27.23;3.60;;;14.90;99.90;;;;;;5054836;28;20554;-53
2022/10/02 01:04:57;;;;;;;28.35;3.70;;;14.90;99.90;;;;;;5054733;28;20211;-53
2022/10/02 01:07:23;;;;;;;27.45;3.58;;;14.90;99.90;;;;;;5037582;28;20246;-49
2022/10/02 01:09:48;;;;;;;19.13;2.92;;;15.00;99.90;;;;;;5037298;28;20716;-49
2022/10/02 01:12:14;;;;;;;32.63;4.00;;;15.00;99.90;;;;;;5055885;28;20217;-51
2022/10/02 01:14:40;;;;;;;29.30;3.72;;;15.00;99.90;;;;;;5052999;28;20310;-47
2022/10/02 01:17:21;;;;;;;34.65;4.18;;;15.00;99.90;;;;;;5055431;28;20182;-58
2022/10/02 01:19:48;;;;;;;18.83;3.70;;;15.00;99.90;;;;;;5051553;28;20194;-51
2022/10/02 01:22:21;;;;;;;30.73;4.75;;;15.00;99.90;;;;;;5051218;28;20623;-49
2022/10/02 01:24:54;;;;;;;28.10;3.92;;;15.00;99.90;;;;;;5055597;28;20650;-48
2022/10/02 01:27:22;;;;;;;26.00;3.40;;;15.10;99.90;;;;;;5055418;28;20172;-49
2022/10/02 01:29:54;;;;;;;23.77;3.15;;;15.10;99.90;;;;;;5053725;28;20183;-51
2022/10/02 01:32:22;;;;;;;27.02;3.80;;;15.10;99.90;;;;;;5048884;28;20186;-49
2022/10/02 01:34:50;;;;;;;25.60;3.80;;;15.10;99.90;;;;;;5054330;28;20560;-50
2022/10/02 01:37:16;;;;;;;21.02;3.50;;;15.10;99.90;;;;;;5055346;28;20180;-53
2022/10/02 01:39:43;;;;;;;27.25;3.65;;;15.10;99.90;;;;;;5054374;28;20215;-48
2022/10/02 01:42:08;;;;;;;29.00;3.58;;;15.10;99.90;;;;;;5030884;28;20182;-47
2022/10/02 01:44:34;;;;;;;29.70;4.15;;;15.10;99.90;;;;;;5054233;28;20183;-52
2022/10/02 01:47:08;;;;;;;25.70;3.72;;;15.20;99.90;;;;;;5035471;28;20188;-49
2022/10/02 01:50:10;;;;;;;26.00;4.13;;;15.20;99.90;;;;;;5055421;28;20514;-51
2022/10/02 01:53:08;;;;;;;22.83;3.47;;;15.20;99.90;;;;;;5054512;28;20203;-52
2022/10/02 01:56:02;;;;;;;20.67;3.40;;;15.20;99.90;;;;;;5024088;28;20331;-52
2022/10/02 01:58:43;;;;;;;24.33;3.63;;;15.20;99.90;;;;;;5051344;28;20179;-49
2022/10/02 02:01:24;;;;;;;27.45;3.13;;;15.20;99.90;;;;;;5051000;28;20720;-54
2022/10/02 02:04:10;;;;;;;19.48;3.55;;;15.20;99.90;;;;;;5054046;28;20233;-49
2022/10/02 02:06:50;;;;;;;23.42;3.17;;;15.10;99.90;;;;;;5054967;28;20176;-49
2022/10/02 02:09:27;;;;;;;22.73;3.60;;;15.10;99.90;;;;;;5047363;28;20179;-49
2022/10/02 02:12:07;;;;;;;25.92;3.92;;;15.10;99.90;;;;;;5051124;28;20186;-49
2022/10/02 02:14:37;;;;;;;19.45;2.80;;;15.10;99.90;;;;;;5054501;28;20300;-50
2022/10/02 02:17:27;;;;;;;24.08;3.00;;;15.10;99.90;;;;;;5054535;28;20167;-52
2022/10/02 02:20:00;;;;;;;24.58;3.30;;;15.10;99.90;;;;;;5030607;28;20274;-53
2022/10/02 02:22:34;;;;;;;22.88;3.20;;;15.10;99.90;;;;;;5041977;28;20191;-51
2022/10/02 02:25:12;;;;;;;25.48;3.15;;;15.00;99.90;;;;;;5034687;28;20172;-50
2022/10/02 02:27:41;;;;;;;23.63;3.90;;;15.00;99.90;;;;;;5053183;28;20183;-47
2022/10/02 02:30:10;;;;;;;21.25;2.97;;;15.00;99.90;;;;;;5046158;28;20563;-52
2022/10/02 02:32:42;;;;;;;20.13;3.17;;;15.00;99.90;;;;;;5052722;28;20198;-53
2022/10/02 02:35:16;;;;;;;21.20;3.05;;;15.00;99.90;;;;;;5054232;28;20195;-53
2022/10/02 02:37:44;;;;;;;18.42;2.85;;;15.00;99.90;;;;;;5036308;28;20241;-52
2022/10/02 02:40:21;;;;;;;19.95;3.22;;;15.00;99.90;;;;;;5051164;28;20211;-53
2022/10/02 02:42:58;;;;;;;21.65;3.15;;;15.00;99.90;;;;;;5049417;28;20194;-54
2022/10/02 02:45:31;;;;;;;26.17;3.40;;;15.00;99.90;;;;;;5035464;28;20205;-54
2022/10/02 02:48:21;;;;;;;32.10;4.00;;;15.10;99.90;;;;;;5038375;28;20167;-53
2022/10/02 02:50:53;;;;;;;26.58;3.13;;;15.00;99.90;;;;;;5039023;28;20274;-57
2022/10/02 02:53:30;;;;;;;23.90;2.92;;;15.10;99.90;;;;;;5046570;28;20182;-52
2022/10/02 02:56:01;;;;;;;19.42;2.80;;;15.00;99.90;;;;;;5035851;28;20206;-51
2022/10/02 02:58:39;;;;;;;20.77;3.28;;;15.00;99.90;;;;;;5053741;28;20229;-53
2022/10/02 03:01:05;;;;;;;20.58;2.67;;;15.00;99.90;;;;;;5017480;28;20179;-52
2022/10/02 03:03:31;;;;;;;20.42;3.10;;;15.00;99.90;;;;;;5048583;28;20535;-49
2022/10/02 03:06:25;;;;;;;15.35;2.53;;;14.90;99.90;;;;;;5053564;28;20175;-50
2022/10/02 03:08:52;;;;;;;20.15;2.97;;;14.90;99.90;;;;;;5052910;28;20171;-50
2022/10/02 03:11:29;;;;;;;21.35;2.90;;;14.90;99.90;;;;;;5052544;28;20183;-52
2022/10/02 03:14:32;;;;;;;15.55;2.70;;;14.90;99.90;;;;;;5041091;28;20237;-53
2022/10/02 03:17:32;;;;;;;29.13;2.95;;;14.90;99.90;;;;;;5053002;28;20175;-50
2022/10/02 03:20:20;;;;;;;19.52;2.88;;;14.90;99.90;;;;;;5035064;28;20206;-53
2022/10/02 03:22:45;;;;;;;19.50;3.08;;;14.90;99.90;;;;;;5046988;28;20184;-53
2022/10/02 03:25:30;;;;;;;15.80;3.10;;;14.80;99.90;;;;;;5044572;28;20195;-50
2022/10/02 03:28:02;;;;;;;22.85;3.70;;;14.80;99.90;;;;;;5050618;28;20257;-49
2022/10/02 03:30:29;;;;;;;18.25;3.45;;;14.80;99.90;;;;;;5052913;28;20183;-53
2022/10/02 03:32:59;;;;;;;20.98;4.25;;;14.80;99.90;;;;;;5051157;28;20236;-52
2022/10/02 03:35:27;;;;;;;22.60;3.22;;;14.80;99.90;;;;;;5052198;28;20219;-50
2022/10/02 03:37:59;;;;;;;22.00;3.40;;;14.80;99.90;;;;;;5032188;28;20182;-50
2022/10/02 03:40:26;;;;;;;17.52;2.65;;;14.80;99.90;;;;;;5052349;28;20171;-49
2022/10/02 03:42:57;;;;;;;22.02;3.10;;;14.90;99.90;;;;;;5055240;28;20184;-53
2022/10/02 03:45:23;;;;;;;23.38;3.10;;;14.80;99.90;;;;;;5018247;28;20175;-51
2022/10/02 03:47:49;;;;;;;29.05;3.15;;;14.90;99.90;;;;;;5049835;28;20179;-51
2022/10/02 03:50:15;;;;;;;24.17;3.50;;;14.90;99.90;;;;;;5052448;28;20270;-50
2022/10/02 03:52:41;;;;;;;20.65;3.13;;;14.90;99.90;;;;;;5030623;28;20172;-51
2022/10/02 03:55:22;;;;;;;27.77;2.75;;;14.90;99.90;;;;;;5038166;28;20216;-51
2022/10/02 03:57:48;;;;;;;24.02;2.95;;;14.90;99.90;;;;;;5048599;28;20171;-52
2022/10/02 04:00:20;;;;;;;26.40;3.40;;;14.90;99.90;;;;;;5056302;28;20557;-50
2022/10/02 04:03:00;;;;;;;21.75;3.20;;;14.90;99.90;;;;;;5056978;28;20186;-54
2022/10/02 04:05:39;;;;;;;21.95;2.80;;;15.00;99.90;;;;;;5051254;28;20602;-54
2022/10/02 04:08:19;;;;;;;23.30;3.17;;;15.00;99.90;;;;;;5056080;28;20214;-54
2022/10/02 04:11:05;;;;;;;29.88;4.00;;;15.00;99.90;;;;;;5038739;28;20580;-49
2022/10/02 04:13:34;;;;;;;24.88;3.55;;;15.10;99.90;;;;;;5056530;28;20294;-51
2022/10/02 04:16:38;;;;;;;20.83;3.33;;;15.10;99.90;;;;;;5055027;28;20194;-50
2022/10/02 04:19:27;;;;;;;23.88;3.67;;;15.20;99.90;;;;;;5033095;28;20182;-52
2022/10/02 04:22:12;;;;;;;31.92;3.40;;;15.20;99.90;;;;;;5053933;28;20627;-51
2022/10/02 04:24:53;;;;;;;19.88;2.72;;;15.10;99.90;;;;;;5037412;28;20171;-49
2022/10/02 04:27:37;;;;;;;16.50;2.72;;;14.90;99.90;;;;;;5050221;28;20625;-54
2022/10/02 04:30:10;;;;;;;24.52;2.83;;;14.70;99.90;;;;;;5050275;28;20178;-53
2022/10/02 04:32:36;;;;;;;26.45;2.88;;;14.50;99.90;;;;;;5055882;28;20262;-56
2022/10/02 04:35:35;;;;;;;19.27;3.30;;;14.30;99.90;;;;;;5055162;28;20210;-56
2022/10/02 04:38:20;;;;;;;17.50;2.60;;;14.10;99.90;;;;;;5027086;28;20197;-52
2022/10/02 04:40:56;;;;;;;24.98;3.42;;;14.00;99.90;;;;;;5058650;28;20175;-50
2022/10/02 04:43:31;;;;;;;29.60;3.55;;;14.00;99.90;;;;;;5055098;28;20194;-64
2022/10/02 04:46:11;;;;;;;22.40;3.13;;;14.00;99.90;;;;;;5043601;28;20183;-51
2022/10/02 04:48:40;;;;;;;30.23;3.35;;;13.90;99.90;;;;;;5046377;28;20522;-58
2022/10/02 04:51:08;;;;;;;30.48;4.18;;;13.90;99.90;;;;;;5052474;28;20175;-51
2022/10/02 04:53:40;;;;;;;26.83;3.70;;;13.90;99.90;;;;;;5054692;28;20211;-47
2022/10/02 04:56:18;;;;;;;22.58;3.95;;;13.90;99.90;;;;;;5041310;28;20179;-53
2022/10/02 04:59:01;;;;;;;37.97;4.28;;;13.90;99.90;;;;;;5023168;28;20198;-52
2022/10/02 05:01:52;;;;;;;24.17;3.40;;;13.90;99.90;;;;;;5052686;28;20179;-50
2022/10/02 05:04:25;;;;;;;28.23;3.70;;;14.00;99.90;;;;;;5050497;28;20318;-51
2022/10/02 05:06:54;;;;;;;30.45;3.78;;;14.00;99.90;;;;;;5049974;28;20658;-51
2022/10/02 05:09:41;;;;;;;26.50;3.80;;;14.00;99.90;;;;;;5044398;28;20178;-49
2022/10/02 05:13:00;;;;;;;30.00;3.55;;;14.00;99.90;;;;;;5037395;28;20193;-52
2022/10/02 05:15:47;;;;;;;27.50;3.90;;;14.10;99.90;;;;;;4973798;28;20312;-48
2022/10/02 05:18:40;;;;;;;25.92;3.67;;;14.10;99.90;;;;;;4974293;28;20317;-50
2022/10/02 05:21:33;;;;;;;21.52;3.60;;;14.10;99.90;;;;;;5037311;28;20186;-56
2022/10/02 05:24:33;;;;;;;24.55;3.42;;;14.10;99.90;;;;;;5046228;28;20241;-52
2022/10/02 05:27:02;;;;;;;22.08;3.80;;;14.20;99.90;;;;;;5054296;28;20176;-47
2022/10/02 05:29:43;;;;;;;24.98;4.13;;;14.20;99.90;;;;;;5051815;28;20186;-49
2022/10/02 05:32:26;;;;;;;19.23;3.28;;;14.20;99.90;;;;;;5049029;28;20658;-54
2022/10/02 05:34:55;;;;;;;22.67;3.65;;;14.20;99.90;;;;;;5035591;28;20215;-53
2022/10/02 05:37:26;;;;;;;23.52;3.22;;;14.30;99.90;;;;;;5035939;28;20180;-53
2022/10/02 05:40:17;;;;;;;27.30;3.90;;;14.30;99.90;;;;;;5042349;28;20184;-50
2022/10/02 05:43:19;;;;;;;20.17;3.35;;;14.30;99.90;;;;;;5048364;28;20172;-59
2022/10/02 05:45:57;;;;;;;27.50;3.80;;;14.30;99.90;;;;;;5009991;28;20182;-50
2022/10/02 05:48:32;;;;;;;20.85;3.33;;;14.30;99.90;;;;;;5034104;28;20188;-52
2022/10/02 05:51:09;;;;;;;21.65;4.28;;;14.30;99.90;;;;;;5046618;28;20205;-52
2022/10/02 05:54:00;;;;;;;18.17;3.70;;;14.30;99.90;;;;;;5034251;28;20275;-51
2022/10/02 05:56:34;;;;;;;22.92;3.42;;;14.30;99.90;;;;;;5055195;28;20313;-51
2022/10/02 05:59:11;;;;;;;21.58;3.60;;;14.30;99.90;;;;;;5053195;28;20186;-54
2022/10/02 06:01:43;;;;;;;22.05;3.70;;;14.30;99.90;;;;;;5020219;28;20178;-61
2022/10/02 06:04:29;;;;;;;29.33;3.90;;;14.30;99.90;;;;;;5046447;28;20322;-50
2022/10/02 06:06:59;;;;;;;21.65;3.63;;;14.30;99.90;;;;;;5035427;28;20179;-48
2022/10/02 06:09:54;;;;;;;24.90;3.80;;;14.30;99.90;;;;;;5051541;28;20183;-49
2022/10/02 06:12:29;;;;;;;22.77;3.90;;;14.30;99.90;;;;;;5038428;28;20735;-49
2022/10/02 06:15:06;;;;;;;20.75;3.63;;;14.30;99.90;;;;;;5036450;28;20199;-52
2022/10/02 06:17:47;;;;;;;21.90;3.42;;;14.30;99.90;;;;;;5035003;28;20589;-56
2022/10/02 06:20:13;;;;;;;17.73;2.90;;;14.40;99.90;;;;;;5053169;28;20216;-50
2022/10/02 06:23:04;;;;;;;24.40;3.15;;;14.40;99.90;;;;;;5034990;28;20183;-50
2022/10/02 06:25:37;;;;;;;24.90;3.35;;;14.40;99.90;;;;;;5042301;28;20195;-57
2022/10/02 06:28:18;;;;;;;26.92;3.58;;;14.40;99.90;;;;;;5046440;28;20662;-51
2022/10/02 06:30:58;;;;;;;27.33;3.47;;;14.40;99.90;;;;;;5034550;28;20554;-52
2022/10/02 06:33:27;;;;;;;23.30;3.72;;;14.40;99.90;;;;;;5052362;28;20270;-50
2022/10/02 06:36:02;;;;;;;16.67;3.50;;;14.50;99.90;;;;;;5026545;28;20686;-50
2022/10/02 06:38:46;;;;;;;25.13;3.13;;;14.50;99.90;;;;;;5045590;28;20182;-54
2022/10/02 06:41:24;;;;;;;25.58;3.08;;;14.50;99.90;;;;;;5061746;28;20178;-52
2022/10/02 06:44:15;;;;;;;16.20;3.38;;;14.50;99.90;;;;;;5031396;28;20560;-53
2022/10/02 06:46:49;;;;;;;30.48;3.72;;;14.60;99.90;;;;;;5035284;28;20632;-51
2022/10/02 06:49:39;;;;;;;21.10;3.38;;;14.60;99.90;;;;;;5048136;28;20695;-54
2022/10/02 06:52:23;;;;;;;19.80;3.70;;;14.60;99.90;;;;;;5020032;28;20203;-57
2022/10/02 06:54:57;;;;;;;23.85;3.55;;;14.70;99.90;;;;;;5041056;28;20613;-54
2022/10/02 06:57:38;;;;;;;16.95;2.90;;;14.70;99.90;;;;;;5050565;28;20186;-51
2022/10/02 07:00:11;;;;;;;23.92;3.42;;;14.70;99.90;;;;;;5033868;28;20242;-54
2022/10/02 07:03:00;;;;;;;20.33;3.38;;;14.80;99.90;;;;;;5049689;28;20179;-49
2022/10/02 07:05:41;;;;;;;27.77;3.55;;;14.80;99.90;;;;;;5053256;28;20289;-54
2022/10/02 07:08:16;;;;;;;21.92;3.47;;;14.80;99.90;;;;;;5051404;28;20585;-54
2022/10/02 07:11:11;;;;;;;18.45;3.35;;;14.90;99.90;;;;;;5018515;28;20630;-54
2022/10/02 07:13:42;;;;;;;22.67;3.63;;;14.90;99.90;;;;;;5024284;28;20213;-52
2022/10/02 07:16:24;;;;;;;22.70;3.55;;;14.90;99.90;;;;;;5052490;28;20278;-53
2022/10/02 07:19:14;;;;;;;21.48;3.47;;;15.00;99.90;;;;;;5052428;28;20183;-54
2022/10/02 07:22:01;;;;;;;22.98;3.00;;;15.00;99.90;;;;;;5047583;28;20549;-60
2022/10/02 07:24:34;;;;;;;22.90;3.67;;;15.10;99.90;;;;;;5045291;28;20244;-49
2022/10/02 07:27:06;;;;;;;21.05;3.53;;;15.10;99.90;;;;;;5051562;28;20190;-53
2022/10/02 07:29:31;;;;;;;22.75;3.30;;;15.20;99.90;;;;;;5051154;28;20179;-51
2022/10/02 07:32:20;;;;;;;19.10;2.72;;;15.20;99.90;;;;;;5048820;28;20250;-53
2022/10/02 07:35:23;;;;;;;18.88;2.78;;;15.20;99.90;;;;;;5042893;28;20568;-54
2022/10/02 07:38:10;;;;;;;21.15;3.00;;;15.30;99.90;;;;;;5050984;28;20179;-54
2022/10/02 07:40:52;;;;;;;17.67;2.70;;;15.30;99.90;;;;;;5037863;28;20290;-51
2022/10/02 07:43:37;;;;;;;23.42;3.05;;;15.30;99.90;;;;;;5054050;28;20175;-54
2022/10/02 07:46:26;;;;;;;21.30;3.20;;;15.30;99.90;;;;;;5052024;28;20167;-49
2022/10/02 07:49:13;;;;;;;20.27;3.10;;;15.40;99.90;;;;;;5034606;28;20604;-53
2022/10/02 07:51:46;;;;;;;21.15;3.30;;;15.40;99.90;;;;;;5053293;28;20167;-53
2022/10/02 07:54:27;;;;;;;18.88;3.35;;;15.40;99.90;;;;;;5039888;28;20219;-55
2022/10/02 07:56:58;;;;;;;26.40;4.38;;;15.40;99.90;;;;;;5050683;28;20179;-49
2022/10/02 07:59:24;;;;;;;19.55;3.55;;;15.40;99.90;;;;;;5033844;28;20270;-53
2022/10/02 08:01:50;;;;;;;17.48;2.90;;;15.50;99.90;;;;;;5051659;28;20326;-51
2022/10/02 08:04:32;;;;;;;21.55;2.97;;;15.50;99.90;;;;;;5021493;28;20691;-61
2022/10/02 08:07:01;;;;;;;19.33;3.08;;;15.50;99.90;;;;;;5027200;28;20188;-53
2022/10/02 08:09:30;;;;;;;18.17;2.90;;;15.60;99.90;;;;;;5031940;28;20643;-51
2022/10/02 08:12:02;;;;;;;15.50;3.10;;;15.60;99.90;;;;;;5031703;28;20186;-49
2022/10/02 08:14:35;;;;;;;16.77;3.03;;;15.60;99.90;;;;;;5027130;28;20215;-55
2022/10/02 08:17:24;;;;;;;17.17;2.70;;;15.60;99.90;;;;;;5033166;28;20208;-52
2022/10/02 08:19:51;;;;;;;20.85;2.65;;;15.70;99.90;;;;;;5032855;28;20188;-52
2022/10/02 08:22:24;;;;;;;17.85;2.80;;;15.70;99.90;;;;;;5030726;28;20180;-63
2022/10/02 08:24:57;;;;;;;19.90;2.97;;;15.70;99.90;;;;;;5027256;28;20191;-57
2022/10/02 08:27:51;;;;;;;16.77;2.85;;;15.70;99.90;;;;;;5022765;28;20168;-52
2022/10/02 08:30:18;;;;;;;16.77;3.50;;;15.80;99.90;;;;;;5029397;28;20542;-54
2022/10/02 08:32:46;;;;;;;20.50;2.97;;;15.80;99.90;;;;;;5030572;28;20172;-52
2022/10/02 08:35:15;;;;;;;20.35;3.28;;;15.90;99.90;;;;;;5029390;28;20211;-61
2022/10/02 08:37:56;;;;;;;17.65;2.92;;;16.00;99.90;;;;;;5020412;28;20176;-49
2022/10/02 08:40:53;;;;;;;22.77;3.08;;;16.00;99.90;;;;;;5033291;28;20171;-52
2022/10/02 08:43:52;;;;;;;18.52;3.50;;;16.00;99.90;;;;;;5028091;28;20192;-51
2022/10/02 08:46:37;;;;;;;23.90;2.97;;;16.10;99.90;;;;;;5020490;28;20234;-52
2022/10/02 08:49:27;;;;;;;23.00;3.50;;;16.20;99.90;;;;;;5048070;28;20278;-52
2022/10/02 08:52:11;;;;;;;19.30;2.92;;;16.20;99.90;;;;;;5033133;28;20176;-55
2022/10/02 08:55:04;;;;;;;21.08;3.15;;;16.20;99.90;;;;;;5049933;28;20253;-56
2022/10/02 08:57:40;;;;;;;21.42;3.70;;;16.30;99.90;;;;;;5025653;28;20913;-50
2022/10/02 09:00:43;;;;;;;22.38;3.33;;;16.40;99.90;;;;;;5020356;28;20176;-51
2022/10/02 09:03:44;;;;;;;17.55;3.13;;;16.40;99.90;;;;;;5002353;28;20238;-62
2022/10/02 09:06:30;;;;;;;21.83;2.85;;;16.50;99.90;;;;;;5035631;28;20191;-57
2022/10/02 09:09:06;;;;;;;20.25;4.28;;;16.50;99.90;;;;;;5016314;28;20656;-52
2022/10/02 09:11:50;;;;;;;20.67;3.60;;;16.60;99.90;;;;;;5032588;28;20679;-49
2022/10/02 09:14:27;;;;;;;19.80;3.40;;;16.60;99.90;;;;;;5032236;28;20212;-50
2022/10/02 09:17:17;;;;;;;17.08;2.47;;;16.70;99.90;;;;;;5033576;28;20524;-57
2022/10/02 09:20:05;;;;;;;23.13;3.10;;;16.70;99.90;;;;;;5034983;28;20168;-50
2022/10/02 09:22:33;;;;;;;25.75;3.40;;;16.70;99.90;;;;;;5022452;28;20179;-46
2022/10/02 09:25:07;;;;;;;16.25;2.90;;;16.70;99.90;;;;;;5050735;28;20249;-51
2022/10/02 09:28:12;;;;;;;16.90;3.17;;;16.70;99.90;;;;;;5032960;28;20167;-63
2022/10/02 09:31:01;;;;;;;19.23;2.80;;;16.70;99.90;;;;;;5024858;28;20188;-50
2022/10/02 09:33:58;;;;;;;16.70;2.92;;;16.70;99.90;;;;;;5032514;28;20183;-52
2022/10/02 09:36:36;;;;;;;14.88;2.90;;;16.60;99.90;;;;;;5035714;28;20172;-50
2022/10/02 09:39:08;;;;;;;15.88;3.25;;;16.70;99.90;;;;;;5026634;28;20223;-61
2022/10/02 09:41:37;;;;;;;16.38;2.75;;;16.60;99.90;;;;;;5041313;28;20551;-50
2022/10/02 09:44:57;;;;;;;22.20;3.25;;;16.60;99.90;;;;;;5034590;28;20184;-48
2022/10/02 09:47:52;;;;;;;24.35;3.55;;;16.60;99.90;;;;;;5031721;28;20180;-52
2022/10/02 09:50:39;;;;;;;19.17;3.03;;;16.60;99.90;;;;;;5031026;28;20192;-52
2022/10/02 09:53:16;;;;;;;26.65;3.42;;;16.60;99.90;;;;;;5033874;28;20262;-52
2022/10/02 09:56:07;;;;;;;17.23;3.30;;;16.60;99.90;;;;;;5033631;28;20222;-50
2022/10/02 09:59:03;;;;;;;19.00;2.78;;;16.60;99.90;;;;;;5033798;28;20187;-65
2022/10/02 10:02:06;;;;;;;19.52;3.08;;;16.70;99.90;;;;;;5029856;28;20230;-51
2022/10/02 10:04:56;;;;;;;18.35;3.22;;;16.70;99.90;;;;;;5048334;28;20702;-50
2022/10/02 10:07:31;;;;;;;19.77;3.30;;;16.80;99.90;;;;;;5032417;28;20168;-50
2022/10/02 10:10:38;;;;;;;19.20;2.65;;;16.90;99.90;;;;;;5016482;28;20270;-50
2022/10/02 10:13:22;;;;;;;26.67;3.58;;;16.90;99.90;;;;;;5019221;28;20667;-50
2022/10/02 10:16:13;;;;;;;18.52;3.25;;;16.90;99.90;;;;;;5048830;28;20223;-51
2022/10/02 10:19:02;;;;;;;21.27;3.08;;;17.00;99.90;;;;;;5024207;28;20270;-49
2022/10/02 10:22:05;;;;;;;22.90;3.20;;;17.10;99.90;;;;;;5021600;28;20272;-50
2022/10/02 10:24:40;;;;;;;22.83;3.08;;;17.10;99.90;;;;;;5032167;28;20194;-50
2022/10/02 10:27:12;;;;;;;18.65;3.10;;;17.20;99.90;;;;;;5033351;28;20172;-60
2022/10/02 10:30:02;;;;;;;17.35;3.05;;;17.20;99.90;;;;;;5029273;28;20188;-49
2022/10/02 10:32:52;;;;;;;17.98;2.90;;;17.30;99.90;;;;;;5030929;28;20279;-50
2022/10/02 10:35:29;;;;;;;16.88;3.10;;;17.40;99.90;;;;;;5032740;28;20230;-53
2022/10/02 10:41:21;;;;;;;16.17;2.70;;;17.40;99.90;;;;;;5017524;28;20187;-53
2022/10/02 10:44:06;;;;;;;19.05;2.70;;;17.40;99.90;;;;;;4970977;28;20208;-50
2022/10/02 10:46:40;;;;;;;19.25;3.38;;;17.40;99.90;;;;;;5013099;28;20175;-53
2022/10/02 10:49:15;;;;;;;18.58;3.38;;;17.50;99.90;;;;;;5026091;28;20635;-52
2022/10/02 10:52:12;;;;;;;14.10;2.63;;;17.50;99.90;;;;;;5025040;28;20191;-52
2022/10/02 10:54:59;;;;;;;17.27;2.78;;;17.50;99.90;;;;;;5031294;28;20218;-53
2022/10/02 10:57:44;;;;;;;13.77;3.00;;;17.60;99.90;;;;;;5048476;28;20268;-52
2022/10/02 11:00:20;;;;;;;16.95;2.63;;;17.50;99.90;;;;;;5013280;28;20215;-52
2022/10/02 11:03:11;;;;;;;11.18;2.53;;;17.60;99.90;;;;;;5031605;28;20658;-50
2022/10/02 11:06:24;;;;;;;20.67;3.10;;;17.70;99.90;;;;;;5034948;28;20238;-56
2022/10/02 11:09:28;;;;;;;17.05;3.28;;;17.70;99.90;;;;;;5050830;28;20235;-54
2022/10/02 11:12:21;;;;;;;14.20;2.42;;;17.80;99.90;;;;;;5028640;28;20182;-51
2022/10/02 11:14:53;;;;;;;18.70;3.00;;;17.90;99.90;;;;;;5052752;28;20207;-51
2022/10/02 11:17:21;;;;;;;13.15;2.53;;;18.00;99.90;;;;;;5033702;28;20183;-58
2022/10/02 11:19:55;;;;;;;20.90;4.10;;;18.00;99.90;;;;;;5038220;28;20341;-51
2022/10/02 11:22:33;;;;;;;15.60;2.92;;;18.00;99.90;;;;;;5047245;28;20233;-57
2022/10/02 11:25:25;;;;;;;22.73;4.57;;;18.00;99.90;;;;;;5032333;28;20192;-53
2022/10/02 11:28:22;;;;;;;13.05;2.63;;;17.90;99.90;;;;;;5039193;28;20179;-49
2022/10/02 11:31:18;;;;;;;16.75;2.70;;;17.90;99.90;;;;;;5039393;28;20191;-51
2022/10/02 11:33:52;;;;;;;19.35;2.65;;;17.90;99.90;;;;;;5005149;28;20180;-52
2022/10/02 11:36:40;;;;;;;13.70;2.40;;;18.00;99.90;;;;;;5031929;28;20175;-50
2022/10/02 11:39:18;;;;;;;21.40;3.17;;;18.20;99.90;;;;;;5043085;28;20189;-67
2022/10/02 11:42:14;;;;;;;14.57;2.90;;;18.30;99.90;;;;;;5037193;28;20176;-52
2022/10/02 11:45:14;;;;;;;18.15;2.90;;;18.40;99.90;;;;;;5034502;28;20258;-52
2022/10/02 11:47:56;;;;;;;15.50;3.00;;;18.60;99.90;;;;;;5050875;28;20205;-50
2022/10/02 11:51:09;;;;;;;15.27;2.90;;;18.70;99.90;;;;;;5050135;28;20187;-47
2022/10/02 11:53:44;;;;;;;15.05;2.58;;;18.80;99.90;;;;;;5051574;28;20286;-53
2022/10/02 11:56:28;;;;;;;18.73;3.53;;;18.70;99.90;;;;;;5034103;28;20179;-52
2022/10/02 11:59:17;;;;;;;15.52;2.88;;;18.50;99.90;;;;;;5050688;28;20605;-50
2022/10/02 12:02:00;;;;;;;17.38;2.97;;;18.30;99.90;;;;;;5038346;28;20213;-53
2022/10/02 12:04:53;;;;;;;19.88;3.55;;;18.50;99.90;;;;;;5049624;28;20314;-53
2022/10/02 12:07:32;;;;;;;15.32;2.40;;;18.60;99.90;;;;;;5051964;28;20163;-57
2022/10/02 12:10:13;;;;;;;19.50;3.10;;;18.90;99.90;;;;;;5032835;28;20160;-54
2022/10/02 12:13:15;;;;;;;26.00;3.08;;;19.00;99.90;;;;;;5047950;28;20191;-51
2022/10/02 12:15:51;;;;;;;18.58;2.42;;;19.10;99.90;;;;;;5028565;28;20230;-50
2022/10/02 12:18:39;;;;;;;12.43;2.55;;;19.20;99.90;;;;;;5036946;28;20175;-46
2022/10/02 12:27:42;;;;;;;19.60;3.47;;;19.40;99.20;;;;;;5040145;28;20276;-52
2022/10/02 12:30:19;;;;;;;18.60;2.83;;;19.50;99.00;;;;;;5019160;28;20168;-50
2022/10/02 12:33:08;;;;;;;10.35;2.20;;;19.60;98.70;;;;;;5046593;28;20626;-50
2022/10/02 12:36:08;;;;;;;16.92;3.10;;;19.80;98.20;;;;;;5051390;28;20214;-50
2022/10/02 12:39:10;;;;;;;13.25;2.53;;;20.00;98.30;;;;;;5040272;28;20225;-58
2022/10/02 12:41:43;;;;;;;15.55;2.78;;;20.00;97.70;;;;;;5060081;28;20182;-54
2022/10/02 12:44:33;;;;;;;17.58;3.60;;;20.00;97.80;;;;;;5059504;28;20187;-55
2022/10/02 12:47:34;;;;;;;13.15;2.80;;;19.90;97.50;;;;;;5055519;28;20187;-55
2022/10/02 12:50:22;;;;;;;17.08;2.95;;;20.00;97.00;;;;;;5007727;28;20202;-52
2022/10/02 12:53:06;;;;;;;15.65;2.70;;;20.00;96.60;;;;;;5024696;28;20229;-58
2022/10/02 12:55:37;;;;;;;17.48;3.33;;;20.00;96.00;;;;;;5053724;28;20214;-52
2022/10/02 12:58:23;;;;;;;17.83;3.00;;;19.90;95.80;;;;;;5037802;28;20266;-54
2022/10/02 13:01:10;;;;;;;19.92;2.60;;;19.80;95.70;;;;;;5038312;28;20167;-52
2022/10/02 13:03:45;;;;;;;14.95;2.78;;;19.90;95.10;;;;;;5050596;28;20183;-71
2022/10/02 13:06:54;;;;;;;18.15;2.28;;;19.90;94.80;;;;;;5056284;28;20678;-53
2022/10/02 13:09:47;;;;;;;11.80;2.60;;;20.00;94.40;;;;;;5054634;28;20186;-55
2022/10/02 13:12:49;;;;;;;12.00;2.78;;;20.20;94.20;;;;;;5035627;28;20183;-59
2022/10/02 13:15:18;;;;;;;20.65;2.70;;;20.30;94.20;;;;;;5038718;28;20215;-54
2022/10/02 13:18:20;;;;;;;15.63;2.70;;;20.50;94.10;;;;;;5054313;28;20225;-53
2022/10/02 13:20:52;;;;;;;15.00;2.80;;;20.60;93.00;;;;;;5055539;28;20183;-51
2022/10/02 13:23:18;;;;;;;16.67;2.67;;;20.70;92.90;;;;;;5054819;28;20179;-52
2022/10/02 13:25:59;;;;;;;14.75;2.20;;;20.60;92.20;;;;;;5043105;28;20187;-53
2022/10/02 13:28:48;;;;;;;11.60;2.13;;;20.60;92.20;;;;;;5053760;28;20190;-53
2022/10/02 13:31:29;;;;;;;10.38;2.10;;;20.60;92.00;;;;;;5054344;28;20194;-55
2022/10/02 13:34:00;;;;;;;10.32;2.35;;;20.70;92.30;;;;;;5053121;28;20317;-64
2022/10/02 13:36:52;;;;;;;15.50;2.38;;;20.90;92.40;;;;;;5041146;28;20183;-53
2022/10/02 13:39:45;;;;;;;12.82;2.55;;;21.10;91.50;;;;;;5002166;28;20751;-71
2022/10/02 13:42:36;;;;;;;15.90;2.90;;;21.20;90.60;;;;;;5051349;28;20225;-55
2022/10/02 13:45:15;;;;;;;10.65;2.60;;;21.30;91.10;;;;;;5038149;28;20183;-54
2022/10/02 13:47:59;;;;;;;12.85;2.75;;;21.50;91.20;;;;;;5034462;28;20186;-54
2022/10/02 13:51:04;;;;;;;11.85;2.53;;;21.70;89.40;;;;;;5055098;28;20224;-55
2022/10/02 13:54:10;;;;;;;10.70;2.80;;;21.80;88.80;;;;;;5035105;28;20191;-55
2022/10/02 13:56:59;;;;;;;12.85;2.42;;;22.00;87.30;;;;;;5015262;28;20272;-55